createdAt,value
2023-04-07T00:01:00.022Z,4.65
2023-04-07T00:03:27.641Z,4.59
2023-04-07T00:05:54.755Z,4.60
2023-04-07T00:08:21.706Z,4.58
2023-04-07T00:10:48.704Z,4.55
2023-04-07T00:13:16.313Z,4.53
2023-04-07T00:15:43.314Z,4.54
2023-04-07T00:18:10.319Z,4.51
2023-04-07T00:20:37.338Z,4.48
2023-04-07T00:23:04.376Z,4.47
2023-04-07T00:25:31.587Z,4.42
2023-04-07T00:27:58.518Z,4.40
2023-04-07T00:30:25.679Z,4.40
2023-04-07T00:32:52.974Z,4.41
2023-04-07T00:35:20.450Z,4.39
2023-04-07T00:37:47.483Z,4.35
2023-04-07T00:40:14.621Z,4.29
2023-04-07T00:42:41.780Z,4.30
2023-04-07T00:45:10.707Z,4.23
2023-04-07T00:47:38.729Z,4.26
2023-04-07T00:50:06.276Z,4.24
2023-04-07T00:52:33.826Z,4.22
2023-04-07T00:55:00.986Z,4.18
2023-04-07T00:57:28.008Z,4.18
2023-04-07T00:59:56.525Z,4.16
2023-04-07T01:02:34.194Z,4.13
2023-04-07T01:05:38.835Z,4.12
2023-04-07T01:08:35.415Z,4.08
2023-04-07T01:11:28.574Z,4.06
2023-04-07T01:13:58.537Z,4.04
2023-04-07T01:16:56.745Z,4.00
2023-04-07T01:19:49.055Z,4.01
2023-04-07T01:22:20.160Z,3.98
2023-04-07T01:25:02.148Z,3.96
2023-04-07T01:28:06.493Z,3.96
2023-04-07T01:30:38.193Z,3.95
2023-04-07T01:33:07.138Z,3.93
2023-04-07T01:35:37.155Z,3.84
2023-04-07T01:38:04.974Z,3.90
2023-04-07T01:40:34.090Z,3.89
2023-04-07T01:43:01.901Z,3.85
2023-04-07T01:45:30.916Z,3.82
2023-04-07T01:47:58.527Z,3.80
2023-04-07T01:50:27.431Z,3.76
2023-04-07T01:52:54.556Z,3.76
2023-04-07T01:55:23.730Z,3.72
2023-04-07T01:58:05.405Z,3.68
2023-04-07T02:00:34.542Z,3.68
2023-04-07T02:03:12.071Z,3.64
2023-04-07T02:05:40.606Z,3.61
2023-04-07T02:08:11.741Z,3.58
2023-04-07T02:10:39.923Z,3.55
2023-04-07T02:13:10.388Z,3.58
2023-04-07T02:15:38.243Z,3.54
2023-04-07T02:18:07.842Z,3.53
2023-04-07T02:20:36.587Z,3.51
2023-04-07T02:23:04.026Z,3.51
2023-04-07T02:25:32.767Z,3.50
2023-04-07T02:28:00.718Z,3.43
2023-04-07T02:30:28.589Z,3.37
2023-04-07T02:32:57.027Z,3.39
2023-04-07T02:35:24.382Z,3.37
2023-04-07T02:37:51.734Z,3.36
2023-04-07T02:40:18.927Z,3.35
2023-04-07T02:42:46.895Z,3.34
2023-04-07T02:45:14.572Z,3.32
2023-04-07T02:47:41.833Z,3.29
2023-04-07T02:50:09.590Z,3.30
2023-04-07T02:52:36.607Z,3.23
2023-04-07T02:55:10.187Z,3.27
2023-04-07T02:57:37.185Z,3.25
2023-04-07T03:00:09.398Z,3.26
2023-04-07T03:02:55.151Z,3.25
2023-04-07T03:05:22.645Z,3.25
2023-04-07T03:07:49.904Z,3.24
2023-04-07T03:10:17.285Z,3.26
2023-04-07T03:12:44.708Z,3.28
2023-04-07T03:15:12.146Z,3.28
2023-04-07T03:17:44.077Z,3.30
2023-04-07T03:20:11.323Z,3.30
2023-04-07T03:22:38.819Z,3.30
2023-04-07T03:25:11.216Z,3.31
2023-04-07T03:27:38.309Z,3.27
2023-04-07T03:30:08.910Z,3.34
2023-04-07T03:32:36.077Z,3.34
2023-04-07T03:35:03.201Z,3.36
2023-04-07T03:37:30.384Z,3.39
2023-04-07T03:39:57.524Z,3.41
2023-04-07T03:42:34.572Z,3.45
2023-04-07T03:45:04.653Z,3.47
2023-04-07T03:47:33.800Z,3.54
2023-04-07T03:50:03.564Z,3.55
2023-04-07T03:52:35.088Z,3.61
2023-04-07T03:55:11.753Z,3.64
2023-04-07T03:57:39.957Z,3.73
2023-04-07T04:00:07.652Z,3.76
2023-04-07T04:02:43.441Z,3.80
2023-04-07T04:05:14.917Z,3.87
2023-04-07T04:07:43.472Z,3.91
2023-04-07T04:10:11.025Z,3.91
2023-04-07T04:12:42.341Z,4.01
2023-04-07T04:15:11.898Z,4.05
2023-04-07T04:17:40.117Z,4.10
2023-04-07T04:20:09.020Z,4.15
2023-04-07T04:22:54.842Z,4.19
2023-04-07T04:25:21.926Z,4.17
2023-04-07T04:27:52.982Z,4.23
2023-04-07T04:30:23.004Z,4.27
2023-04-07T04:32:54.126Z,4.35
2023-04-07T04:35:56.622Z,4.42
2023-04-07T04:38:25.426Z,4.47
2023-04-07T04:40:57.869Z,4.47
2023-04-07T04:43:28.785Z,4.49
2023-04-07T04:45:57.081Z,4.49
2023-04-07T04:48:27.506Z,4.55
2023-04-07T04:50:54.934Z,4.59
2023-04-07T04:53:22.421Z,4.64
2023-04-07T04:55:55.033Z,4.68
2023-04-07T04:58:26.717Z,4.76
2023-04-07T05:01:00.508Z,4.83
2023-04-07T05:03:41.880Z,4.85
2023-04-07T05:06:17.899Z,4.93
2023-04-07T05:08:47.795Z,4.96
2023-04-07T05:11:17.361Z,5.00
2023-04-07T05:13:48.417Z,5.03
2023-04-07T05:16:15.509Z,5.11
2023-04-07T05:18:42.763Z,5.16
2023-04-07T05:21:12.737Z,5.21
2023-04-07T05:23:43.328Z,5.21
2023-04-07T05:26:11.729Z,5.26
2023-04-07T05:28:39.944Z,5.33
2023-04-07T05:31:13.988Z,5.40
2023-04-07T05:33:43.414Z,5.44
2023-04-07T05:36:10.631Z,5.49
2023-04-07T05:38:40.629Z,5.56
2023-04-07T05:41:12.668Z,5.60
2023-04-07T05:43:39.879Z,5.66
2023-04-07T05:46:07.094Z,5.67
2023-04-07T05:48:39.888Z,5.68
2023-04-07T05:51:10.894Z,5.69
2023-04-07T05:53:38.022Z,5.77
2023-04-07T05:56:06.121Z,5.85
2023-04-07T05:58:45.346Z,5.95
2023-04-07T06:01:14.522Z,6.03
2023-04-07T06:03:46.167Z,6.07
2023-04-07T06:06:21.778Z,6.07
2023-04-07T06:08:48.989Z,6.07
2023-04-07T06:11:16.048Z,6.01
2023-04-07T06:13:43.917Z,6.08
2023-04-07T06:16:25.334Z,6.12
2023-04-07T06:18:52.596Z,6.17
2023-04-07T06:21:19.816Z,6.19
2023-04-07T06:23:47.353Z,6.20
2023-04-07T06:26:15.023Z,6.26
2023-04-07T06:28:46.680Z,6.33
2023-04-07T06:31:15.266Z,6.42
2023-04-07T06:33:47.136Z,6.53
2023-04-07T06:36:23.983Z,6.61
2023-04-07T06:38:56.717Z,6.49
2023-04-07T06:41:23.989Z,6.69
2023-04-07T06:43:51.753Z,6.79
2023-04-07T06:46:22.284Z,6.83
2023-04-07T06:48:49.639Z,6.84
2023-04-07T06:51:16.669Z,6.84
2023-04-07T06:53:49.106Z,6.92
2023-04-07T06:56:16.800Z,6.96
2023-04-07T06:58:44.000Z,7.08
2023-04-07T07:01:11.409Z,7.11
2023-04-07T07:03:38.644Z,7.14
2023-04-07T07:06:06.475Z,7.23
2023-04-07T07:08:36.546Z,7.28
2023-04-07T07:11:03.831Z,7.26
2023-04-07T07:13:31.076Z,7.31
2023-04-07T07:15:58.353Z,7.37
2023-04-07T07:18:26.005Z,7.38
2023-04-07T07:20:53.131Z,7.51
2023-04-07T07:23:20.248Z,7.59
2023-04-07T07:25:48.318Z,7.70
2023-04-07T07:28:15.687Z,7.80
2023-04-07T07:30:42.697Z,7.90
2023-04-07T07:33:10.454Z,7.93
2023-04-07T07:35:38.074Z,8.03
2023-04-07T07:38:05.168Z,8.14
2023-04-07T07:40:32.795Z,8.22
2023-04-07T07:43:01.141Z,8.28
2023-04-07T07:45:28.432Z,8.42
2023-04-07T07:47:55.653Z,8.49
2023-04-07T07:50:22.868Z,8.60
2023-04-07T07:52:50.080Z,8.72
2023-04-07T07:55:17.161Z,8.79
2023-04-07T07:57:44.268Z,8.88
2023-04-07T08:00:12.298Z,8.88
2023-04-07T08:02:45.224Z,8.96
2023-04-07T08:05:13.034Z,8.97
2023-04-07T08:07:40.129Z,9.02
2023-04-07T08:10:07.464Z,9.04
2023-04-07T08:12:35.512Z,9.12
2023-04-07T08:15:05.581Z,9.20
2023-04-07T08:17:32.946Z,9.31
2023-04-07T08:20:01.532Z,9.35
2023-04-07T08:22:28.634Z,9.48
2023-04-07T08:24:56.054Z,9.51
2023-04-07T08:27:23.028Z,9.53
2023-04-07T08:30:02.481Z,9.65
2023-04-07T08:32:45.300Z,9.74
2023-04-07T08:35:12.978Z,9.79
2023-04-07T08:37:41.456Z,9.76
2023-04-07T08:40:08.891Z,9.82
2023-04-07T08:42:40.879Z,9.85
2023-04-07T08:45:10.039Z,9.92
2023-04-07T08:47:38.598Z,10.01
2023-04-07T08:50:09.396Z,10.05
2023-04-07T08:52:47.080Z,10.11
2023-04-07T08:55:14.964Z,10.14
2023-04-07T08:57:43.018Z,10.23
2023-04-07T09:00:11.434Z,10.27
2023-04-07T09:02:46.000Z,10.35
2023-04-07T09:05:14.863Z,10.37
2023-04-07T09:07:43.500Z,10.44
2023-04-07T09:10:10.904Z,10.44
2023-04-07T09:12:38.473Z,10.45
2023-04-07T09:15:08.942Z,10.42
2023-04-07T09:17:36.196Z,10.52
2023-04-07T09:20:04.372Z,10.53
2023-04-07T09:22:39.304Z,10.65
2023-04-07T09:25:16.775Z,10.81
2023-04-07T09:28:00.247Z,10.98
2023-04-07T09:30:28.837Z,11.11
2023-04-07T09:32:56.219Z,11.24
2023-04-07T09:35:24.807Z,11.38
2023-04-07T09:38:03.644Z,11.47
2023-04-07T09:40:30.789Z,11.49
2023-04-07T09:43:01.840Z,11.53
2023-04-07T09:45:35.160Z,11.62
2023-04-07T09:48:22.047Z,11.73
2023-04-07T09:50:52.248Z,11.79
2023-04-07T09:53:23.385Z,11.87
2023-04-07T09:55:50.861Z,11.87
2023-04-07T09:58:18.801Z,11.85
2023-04-07T10:00:46.870Z,11.95
2023-04-07T10:03:15.611Z,12.09
2023-04-07T10:05:43.798Z,12.20
2023-04-07T10:08:13.262Z,12.24
2023-04-07T10:10:43.495Z,12.32
2023-04-07T10:13:11.851Z,12.36
2023-04-07T10:15:40.233Z,12.34
2023-04-07T10:18:09.130Z,12.41
2023-04-07T10:20:42.236Z,12.50
2023-04-07T10:23:32.275Z,12.62
2023-04-07T10:26:01.362Z,12.67
2023-04-07T10:28:31.035Z,12.68
2023-04-07T10:30:58.712Z,12.88
2023-04-07T10:33:52.116Z,13.01
2023-04-07T10:36:21.181Z,13.11
2023-04-07T10:39:09.741Z,13.23
2023-04-07T10:41:38.438Z,13.20
2023-04-07T10:44:06.971Z,13.29
2023-04-07T10:46:47.262Z,13.39
2023-04-07T10:49:18.654Z,13.43
2023-04-07T10:52:12.421Z,13.56
2023-04-07T10:54:43.064Z,13.63
2023-04-07T10:57:14.672Z,13.71
2023-04-07T11:00:02.801Z,13.70
2023-04-07T11:02:30.032Z,13.53
2023-04-07T11:04:57.390Z,13.39
2023-04-07T11:07:45.096Z,13.30
2023-04-07T11:10:13.811Z,13.27
2023-04-07T11:12:40.895Z,13.36
2023-04-07T11:15:22.271Z,13.48
2023-04-07T11:18:17.070Z,13.53
2023-04-07T11:20:55.890Z,13.55
2023-04-07T11:23:25.355Z,13.63
2023-04-07T11:26:03.266Z,13.73
2023-04-07T11:28:31.098Z,13.83
2023-04-07T11:31:00.475Z,13.92
2023-04-07T11:33:29.693Z,14.01
2023-04-07T11:36:01.926Z,14.07
2023-04-07T11:38:35.108Z,14.07
2023-04-07T11:41:15.670Z,14.06
2023-04-07T11:43:43.104Z,14.10
2023-04-07T11:46:18.581Z,14.14
2023-04-07T11:48:47.411Z,14.01
2023-04-07T11:51:19.290Z,13.88
2023-04-07T11:53:50.469Z,13.77
2023-04-07T11:56:18.914Z,13.65
2023-04-07T11:58:50.535Z,13.58
2023-04-07T12:01:18.198Z,13.55
2023-04-07T12:04:05.031Z,13.58
2023-04-07T12:06:35.459Z,13.65
2023-04-07T12:09:02.991Z,13.83
2023-04-07T12:11:30.316Z,14.11
2023-04-07T12:13:57.519Z,14.59
2023-04-07T12:16:24.913Z,15.21
2023-04-07T12:18:52.184Z,15.87
2023-04-07T12:21:20.482Z,16.60
2023-04-07T12:23:48.949Z,17.43
2023-04-07T12:26:16.285Z,18.07
2023-04-07T12:28:43.421Z,18.45
2023-04-07T12:31:11.187Z,18.84
2023-04-07T12:33:38.346Z,19.19
2023-04-07T12:36:05.886Z,19.44
2023-04-07T12:38:32.900Z,19.44
2023-04-07T12:41:03.773Z,19.33
2023-04-07T12:43:31.735Z,19.08
2023-04-07T12:45:58.997Z,18.95
2023-04-07T12:48:27.683Z,18.82
2023-04-07T12:50:54.997Z,18.75
2023-04-07T12:53:23.089Z,18.79
2023-04-07T12:55:50.651Z,18.91
2023-04-07T12:58:19.223Z,19.09
2023-04-07T13:00:49.484Z,19.44
2023-04-07T13:03:17.051Z,19.95
2023-04-07T13:05:44.135Z,20.68
2023-04-07T13:08:13.547Z,21.39
2023-04-07T13:10:40.498Z,21.93
2023-04-07T13:13:12.633Z,22.27
2023-04-07T13:15:39.752Z,22.57
2023-04-07T13:18:07.151Z,22.96
2023-04-07T13:20:34.132Z,23.48
2023-04-07T13:23:08.141Z,24.04
2023-04-07T13:25:37.992Z,24.57
2023-04-07T13:28:05.957Z,24.86
2023-04-07T13:30:33.717Z,25.19
2023-04-07T13:33:03.018Z,25.41
2023-04-07T13:35:35.716Z,25.60
2023-04-07T13:38:04.258Z,25.70
2023-04-07T13:40:31.413Z,25.71
2023-04-07T13:42:59.600Z,25.74
2023-04-07T13:45:29.852Z,25.82
2023-04-07T13:47:57.049Z,25.84
2023-04-07T13:50:24.446Z,25.78
2023-04-07T13:52:51.836Z,25.76
2023-04-07T13:55:20.570Z,25.78
2023-04-07T13:57:50.943Z,25.70
2023-04-07T14:00:18.647Z,25.60
2023-04-07T14:02:47.834Z,25.46
2023-04-07T14:05:15.009Z,25.20
2023-04-07T14:07:41.936Z,24.88
2023-04-07T14:10:10.710Z,24.77
2023-04-07T14:12:39.033Z,24.91
2023-04-07T14:15:07.046Z,25.13
2023-04-07T14:17:34.146Z,25.23
2023-04-07T14:20:02.263Z,25.28
2023-04-07T14:22:30.247Z,25.31
2023-04-07T14:24:59.987Z,25.19
2023-04-07T14:27:28.133Z,25.07
2023-04-07T14:29:58.084Z,24.96
2023-04-07T14:32:25.241Z,24.84
2023-04-07T14:34:52.391Z,24.75
2023-04-07T14:37:24.196Z,24.47
2023-04-07T14:40:01.386Z,24.19
2023-04-07T14:42:30.891Z,23.77
2023-04-07T14:44:59.881Z,23.30
2023-04-07T14:47:27.704Z,22.99
2023-04-07T14:49:55.595Z,22.73
2023-04-07T14:52:22.705Z,22.60
2023-04-07T14:54:50.036Z,22.47
2023-04-07T14:57:17.367Z,22.27
2023-04-07T14:59:44.445Z,21.88
2023-04-07T15:02:11.535Z,21.33
2023-04-07T15:04:39.283Z,20.97
2023-04-07T15:07:06.460Z,20.62
2023-04-07T15:09:33.700Z,20.43
2023-04-07T15:12:01.067Z,20.42
2023-04-07T15:14:28.414Z,20.34
2023-04-07T15:16:55.864Z,20.31
2023-04-07T15:19:23.177Z,20.28
2023-04-07T15:21:50.517Z,20.11
2023-04-07T15:24:19.558Z,19.82
2023-04-07T15:26:46.930Z,19.45
2023-04-07T15:29:14.259Z,19.17
2023-04-07T15:31:41.528Z,18.84
2023-04-07T15:34:08.913Z,18.47
2023-04-07T15:36:36.315Z,18.08
2023-04-07T15:39:05.573Z,17.59
2023-04-07T15:41:33.430Z,16.92
2023-04-07T15:44:01.493Z,16.32
2023-04-07T15:46:29.442Z,15.75
2023-04-07T15:48:56.804Z,15.26
2023-04-07T15:51:24.300Z,14.82
2023-04-07T15:53:51.489Z,14.38
2023-04-07T15:56:18.823Z,14.14
2023-04-07T15:58:50.658Z,13.78
2023-04-07T16:01:21.179Z,13.37
2023-04-07T16:03:48.694Z,12.98
2023-04-07T16:06:16.564Z,12.78
2023-04-07T16:08:44.011Z,12.35
2023-04-07T16:11:11.570Z,12.23
2023-04-07T16:13:38.781Z,11.95
2023-04-07T16:16:07.839Z,11.76
2023-04-07T16:18:35.202Z,11.53
2023-04-07T16:21:04.548Z,11.33
2023-04-07T16:23:31.993Z,11.13
2023-04-07T16:25:59.290Z,10.95
2023-04-07T16:28:26.381Z,10.81
2023-04-07T16:30:53.435Z,10.67
2023-04-07T16:33:20.655Z,10.49
2023-04-07T16:35:47.860Z,10.40
2023-04-07T16:38:15.005Z,10.28
2023-04-07T16:40:56.840Z,10.16
2023-04-07T16:43:28.032Z,10.03
2023-04-07T16:45:56.655Z,9.90
2023-04-07T16:48:23.861Z,9.83
2023-04-07T16:50:51.051Z,9.76
2023-04-07T16:53:21.282Z,9.68
2023-04-07T16:55:48.842Z,9.59
2023-04-07T16:58:19.829Z,9.52
2023-04-07T17:00:46.954Z,9.44
2023-04-07T17:03:17.452Z,9.39
2023-04-07T17:05:44.923Z,9.30
2023-04-07T17:08:12.289Z,9.23
2023-04-07T17:10:42.040Z,9.19
2023-04-07T17:13:09.261Z,9.13
2023-04-07T17:15:38.122Z,9.06
2023-04-07T17:18:05.277Z,8.93
2023-04-07T17:20:32.650Z,8.92
2023-04-07T17:22:59.590Z,8.81
2023-04-07T17:25:26.722Z,8.82
2023-04-07T17:27:55.365Z,8.72
2023-04-07T17:30:25.365Z,8.66
2023-04-07T17:32:53.679Z,8.62
2023-04-07T17:35:21.979Z,8.60
2023-04-07T17:37:51.206Z,8.58
2023-04-07T17:40:19.084Z,8.41
2023-04-07T17:42:46.494Z,8.49
2023-04-07T17:45:18.084Z,8.31
2023-04-07T17:47:46.653Z,8.34
2023-04-07T17:50:19.084Z,8.16
2023-04-07T17:52:50.204Z,8.33
2023-04-07T17:55:20.196Z,8.28
2023-04-07T17:57:47.360Z,8.28
2023-04-07T18:00:14.616Z,8.23
2023-04-07T18:02:42.333Z,8.18
2023-04-07T18:05:13.450Z,8.07
2023-04-07T18:07:40.525Z,8.08
2023-04-07T18:10:08.453Z,8.03
2023-04-07T18:12:38.161Z,7.95
2023-04-07T18:15:07.787Z,7.95
2023-04-07T18:17:34.876Z,7.87
2023-04-07T18:20:04.138Z,7.89
2023-04-07T18:22:31.756Z,7.83
2023-04-07T18:25:00.387Z,7.81
2023-04-07T18:27:28.482Z,7.75
2023-04-07T18:29:58.755Z,7.71
2023-04-07T18:32:26.085Z,7.69
2023-04-07T18:34:53.905Z,7.66
2023-04-07T18:37:22.433Z,7.65
2023-04-07T18:39:49.577Z,7.63
2023-04-07T18:42:16.678Z,7.60
2023-04-07T18:44:44.936Z,7.57
2023-04-07T18:47:12.000Z,7.51
2023-04-07T18:49:40.309Z,7.47
2023-04-07T18:52:07.650Z,7.44
2023-04-07T18:54:34.913Z,7.42
2023-04-07T18:57:02.910Z,7.38
2023-04-07T18:59:30.512Z,7.36
2023-04-07T19:01:57.644Z,7.32
2023-04-07T19:04:25.085Z,7.34
2023-04-07T19:06:52.809Z,7.30
2023-04-07T19:09:20.030Z,7.29
2023-04-07T19:11:47.626Z,7.25
2023-04-07T19:14:14.625Z,7.19
2023-04-07T19:16:42.085Z,7.14
2023-04-07T19:19:10.228Z,7.13
2023-04-07T19:21:40.352Z,7.10
2023-04-07T19:24:07.903Z,7.08
2023-04-07T19:26:35.273Z,7.07
2023-04-07T19:29:03.652Z,7.02
2023-04-07T19:31:31.472Z,7.00
2023-04-07T19:33:59.315Z,6.98
2023-04-07T19:36:26.672Z,6.95
2023-04-07T19:38:53.786Z,6.96
2023-04-07T19:41:21.304Z,6.93
2023-04-07T19:43:48.921Z,6.92
2023-04-07T19:46:16.612Z,6.89
2023-04-07T19:48:44.039Z,6.84
2023-04-07T19:51:11.119Z,6.83
2023-04-07T19:53:38.327Z,6.80
2023-04-07T19:56:05.612Z,6.75
2023-04-07T19:58:34.525Z,6.79
2023-04-07T20:01:04.623Z,6.79
2023-04-07T20:03:31.781Z,6.75
2023-04-07T20:05:59.739Z,6.72
2023-04-07T20:08:26.873Z,6.71
2023-04-07T20:10:53.904Z,6.68
2023-04-07T20:13:20.920Z,6.65
2023-04-07T20:15:49.288Z,6.62
2023-04-07T20:18:19.288Z,6.60
2023-04-07T20:20:46.559Z,6.59
2023-04-07T20:23:16.121Z,6.60
2023-04-07T20:25:43.129Z,6.61
2023-04-07T20:28:10.278Z,6.60
2023-04-07T20:30:37.226Z,6.56
2023-04-07T20:33:04.565Z,6.53
2023-04-07T20:35:31.954Z,6.50
2023-04-07T20:38:00.314Z,6.46
2023-04-07T20:40:27.768Z,6.45
2023-04-07T20:42:54.840Z,6.39
2023-04-07T20:45:22.380Z,6.36
2023-04-07T20:47:49.522Z,6.35
2023-04-07T20:50:17.226Z,6.33
2023-04-07T20:52:44.208Z,6.34
2023-04-07T20:55:11.899Z,6.33
2023-04-07T20:57:41.747Z,6.31
2023-04-07T21:00:10.473Z,6.30
2023-04-07T21:02:38.416Z,6.31
2023-04-07T21:05:05.893Z,6.33
2023-04-07T21:07:32.808Z,6.33
2023-04-07T21:10:01.075Z,6.29
2023-04-07T21:12:28.119Z,6.30
2023-04-07T21:14:55.151Z,6.26
2023-04-07T21:17:22.300Z,6.25
2023-04-07T21:19:49.300Z,6.24
2023-04-07T21:22:16.348Z,6.20
2023-04-07T21:24:43.412Z,6.18
2023-04-07T21:27:10.618Z,6.14
2023-04-07T21:29:37.812Z,6.10
2023-04-07T21:32:05.567Z,6.12
2023-04-07T21:34:32.483Z,6.11
2023-04-07T21:36:59.560Z,6.10
2023-04-07T21:39:26.634Z,6.07
2023-04-07T21:41:53.602Z,6.04
2023-04-07T21:44:21.531Z,6.00
2023-04-07T21:46:49.039Z,6.00
2023-04-07T21:49:18.125Z,6.00
2023-04-07T21:51:45.090Z,5.96
2023-04-07T21:54:12.578Z,5.95
2023-04-07T21:56:39.573Z,5.93
2023-04-07T21:59:07.442Z,5.85
2023-04-07T22:01:34.786Z,5.88
2023-04-07T22:04:02.284Z,5.86
2023-04-07T22:06:29.484Z,5.83
2023-04-07T22:09:01.518Z,5.82
2023-04-07T22:11:29.249Z,5.81
2023-04-07T22:13:56.404Z,5.79
2023-04-07T22:16:23.509Z,5.78
2023-04-07T22:18:51.165Z,5.77
2023-04-07T22:21:18.503Z,5.74
2023-04-07T22:23:45.713Z,5.73
2023-04-07T22:26:13.533Z,5.70
2023-04-07T22:28:41.316Z,5.69
2023-04-07T22:31:08.241Z,5.65
2023-04-07T22:33:35.216Z,5.60
2023-04-07T22:36:03.751Z,5.65
2023-04-07T22:38:31.037Z,5.69
2023-04-07T22:40:57.891Z,5.69
2023-04-07T22:43:25.286Z,5.66
2023-04-07T22:45:52.226Z,5.54
2023-04-07T22:48:19.132Z,5.49
2023-04-07T22:50:46.389Z,5.48
2023-04-07T22:53:13.349Z,5.38
2023-04-07T22:55:40.866Z,5.41
2023-04-07T22:58:07.913Z,5.34
2023-04-07T23:00:35.319Z,5.29
2023-04-07T23:03:02.434Z,5.28
2023-04-07T23:05:29.535Z,5.24
2023-04-07T23:07:56.414Z,5.21
2023-04-07T23:10:23.552Z,5.16
2023-04-07T23:12:54.050Z,5.17
2023-04-07T23:15:21.077Z,5.09
2023-04-07T23:17:48.143Z,5.08
2023-04-07T23:20:15.523Z,5.07
2023-04-07T23:22:42.512Z,5.05
2023-04-07T23:25:09.720Z,5.00
2023-04-07T23:27:36.732Z,4.97
2023-04-07T23:30:04.725Z,5.00
2023-04-07T23:32:31.844Z,4.97
2023-04-07T23:34:58.937Z,4.95
2023-04-07T23:37:26.067Z,4.95
2023-04-07T23:39:53.359Z,4.93
2023-04-07T23:42:20.290Z,4.93
2023-04-07T23:44:47.391Z,4.87
2023-04-07T23:47:14.343Z,4.90
2023-04-07T23:49:41.274Z,4.87
2023-04-07T23:52:08.474Z,4.81
2023-04-07T23:54:35.995Z,4.81
2023-04-07T23:57:03.514Z,4.79
2023-04-07T23:59:30.669Z,4.73
